Time;durP1;ratioP1;P1;durP2;ratioP2;P2;SDS_P1;SDS_P2;PMS_P1;PMS_P2;Temp;Humidity;BMP_temperature;BMP_pressure;BME280_temperature;BME280_humidity;BME280_pressure;Samples;Min_cycle;Max_cycle;Signal;HPM_P1;HPM_P2
2023/12/21 00:01:35;;;;;;;55.97;35.83;;;3.60;99.70;;;;;;5084328;28;20239;-63
2023/12/21 00:04:03;;;;;;;54.50;36.30;;;3.60;99.70;;;;;;5082934;28;20265;-63
2023/12/21 00:06:31;;;;;;;53.10;33.40;;;3.70;99.70;;;;;;5078400;28;20223;-63
2023/12/21 00:08:58;;;;;;;58.27;35.97;;;3.70;99.70;;;;;;5082586;28;20558;-63
2023/12/21 00:11:25;;;;;;;62.97;37.50;;;3.80;99.90;;;;;;5079888;28;20554;-63
2023/12/21 00:13:52;;;;;;;56.37;32.77;;;3.80;99.80;;;;;;5083221;28;20193;-63
2023/12/21 00:16:19;;;;;;;57.10;36.37;;;3.90;99.80;;;;;;5084386;28;20663;-62
2023/12/21 00:18:46;;;;;;;59.13;37.47;;;3.90;99.80;;;;;;5081445;28;20204;-63
2023/12/21 00:21:13;;;;;;;57.93;37.83;;;4.00;99.80;;;;;;5083712;28;20210;-62
2023/12/21 00:23:40;;;;;;;60.93;36.20;;;4.00;99.90;;;;;;5081400;28;20204;-63
2023/12/21 00:26:07;;;;;;;59.77;36.47;;;4.00;99.80;;;;;;5079481;28;20202;-63
2023/12/21 00:28:34;;;;;;;60.57;36.90;;;4.10;99.80;;;;;;5086093;28;20213;-63
2023/12/21 00:31:02;;;;;;;56.60;36.90;;;4.10;99.80;;;;;;5092098;28;20209;-63
2023/12/21 00:33:29;;;;;;;57.97;35.77;;;4.10;99.80;;;;;;5079906;28;20210;-63
2023/12/21 00:35:56;;;;;;;64.70;39.13;;;4.10;99.80;;;;;;5078889;28;20267;-63
2023/12/21 00:38:23;;;;;;;65.63;37.47;;;4.10;99.80;;;;;;5076553;28;20542;-63
2023/12/21 00:40:52;;;;;;;57.30;38.27;;;4.10;99.80;;;;;;5077360;28;20225;-63
2023/12/21 00:43:19;;;;;;;59.43;37.63;;;4.20;99.80;;;;;;5074696;28;20285;-63
2023/12/21 00:45:46;;;;;;;57.70;37.63;;;4.20;99.80;;;;;;5076791;28;20212;-62
2023/12/21 00:48:14;;;;;;;58.57;37.83;;;4.20;99.90;;;;;;5081015;28;20225;-64
2023/12/21 00:50:42;;;;;;;51.60;35.87;;;4.20;99.90;;;;;;5084204;28;20264;-64
2023/12/21 00:53:09;;;;;;;60.57;37.20;;;4.30;99.90;;;;;;5083608;28;20735;-62
2023/12/21 00:55:36;;;;;;;54.20;33.67;;;4.30;99.90;;;;;;5080735;28;20208;-62
2023/12/21 00:58:03;;;;;;;54.27;34.23;;;4.30;99.90;;;;;;5079945;28;20212;-63
2023/12/21 01:00:31;;;;;;;53.93;34.80;;;4.40;99.90;;;;;;5080204;28;20205;-63
2023/12/21 01:02:58;;;;;;;51.53;35.90;;;4.40;99.90;;;;;;5085470;28;20548;-63
2023/12/21 01:05:25;;;;;;;55.33;33.23;;;4.50;99.90;;;;;;5081793;28;20211;-63
2023/12/21 01:07:53;;;;;;;52.73;33.80;;;4.50;99.90;;;;;;5083241;28;20245;-62
2023/12/21 01:10:20;;;;;;;49.60;34.57;;;4.50;99.90;;;;;;5082028;28;20276;-63
2023/12/21 01:12:47;;;;;;;49.97;31.83;;;4.50;99.90;;;;;;5085463;28;20207;-63
2023/12/21 01:15:14;;;;;;;49.87;32.90;;;4.50;99.90;;;;;;5084261;28;20266;-63
2023/12/21 01:17:41;;;;;;;53.20;33.73;;;4.60;99.90;;;;;;5087313;28;20245;-63
2023/12/21 01:20:09;;;;;;;58.63;34.17;;;4.60;99.90;;;;;;5081256;28;20299;-63
2023/12/21 01:22:36;;;;;;;51.23;32.77;;;4.60;99.90;;;;;;5089098;28;20391;-63
2023/12/21 01:25:03;;;;;;;53.37;32.93;;;4.70;99.90;;;;;;5078112;28;20190;-63
2023/12/21 01:27:30;;;;;;;55.00;34.43;;;4.70;99.90;;;;;;5083584;28;22084;-63
2023/12/21 01:29:59;;;;;;;61.43;32.97;;;4.70;99.80;;;;;;5082298;28;20505;-63
2023/12/21 01:32:26;;;;;;;56.60;33.97;;;4.70;99.90;;;;;;5087219;28;20209;-63
2023/12/21 01:34:54;;;;;;;48.53;33.80;;;4.70;99.90;;;;;;5076875;28;20197;-63
2023/12/21 01:37:21;;;;;;;48.77;34.00;;;4.70;99.90;;;;;;5079635;28;20204;-62
2023/12/21 01:39:48;;;;;;;52.60;32.43;;;4.70;99.90;;;;;;5083905;28;20197;-63
2023/12/21 01:42:15;;;;;;;52.77;32.97;;;4.80;99.90;;;;;;5084639;28;20235;-62
2023/12/21 01:44:42;;;;;;;49.10;31.87;;;4.80;99.90;;;;;;5081131;28;20190;-62
2023/12/21 01:47:10;;;;;;;47.97;32.60;;;4.80;99.90;;;;;;5083673;28;20205;-63
2023/12/21 01:49:37;;;;;;;51.00;34.33;;;4.80;99.90;;;;;;5081033;28;20292;-63
2023/12/21 01:52:06;;;;;;;46.13;31.93;;;4.80;99.90;;;;;;5081586;28;20198;-63
2023/12/21 01:54:33;;;;;;;47.90;30.47;;;4.80;99.90;;;;;;5087478;28;20232;-63
2023/12/21 01:57:00;;;;;;;49.00;32.87;;;4.90;99.90;;;;;;5082180;28;20202;-63
2023/12/21 01:59:27;;;;;;;45.37;30.37;;;4.90;99.90;;;;;;5080098;28;20254;-63
2023/12/21 02:01:55;;;;;;;53.53;30.63;;;4.90;99.90;;;;;;5079306;28;20238;-63
2023/12/21 02:04:22;;;;;;;46.87;30.10;;;4.80;99.90;;;;;;5076826;28;20615;-63
2023/12/21 02:06:50;;;;;;;44.70;28.27;;;4.80;99.90;;;;;;5083723;28;20202;-63
2023/12/21 02:09:17;;;;;;;51.87;31.20;;;4.90;99.90;;;;;;5080851;28;20225;-63
2023/12/21 02:11:46;;;;;;;42.80;29.13;;;4.90;99.90;;;;;;5085851;28;20242;-62
2023/12/21 02:14:13;;;;;;;48.77;29.37;;;4.90;99.90;;;;;;5084924;28;20204;-63
2023/12/21 02:16:59;;;;;;;43.30;28.17;;;4.90;99.90;;;;;;5081811;28;20212;-63
2023/12/21 02:19:27;;;;;;;45.37;30.70;;;4.90;99.90;;;;;;5086588;28;20599;-63
2023/12/21 02:21:58;;;;;;;41.83;27.30;;;4.90;99.90;;;;;;5080837;28;20301;-63
2023/12/21 02:24:30;;;;;;;46.03;27.50;;;4.90;99.90;;;;;;5087591;28;20208;-63
2023/12/21 02:26:57;;;;;;;46.50;27.90;;;4.90;99.90;;;;;;5082050;28;20213;-63
2023/12/21 02:29:24;;;;;;;42.27;27.20;;;4.90;99.90;;;;;;5082232;28;20213;-63
2023/12/21 02:31:51;;;;;;;44.37;26.80;;;5.00;99.90;;;;;;5083434;28;20275;-63
2023/12/21 02:34:18;;;;;;;39.67;28.87;;;5.00;99.90;;;;;;5084131;28;20296;-63
2023/12/21 02:36:46;;;;;;;38.53;27.37;;;5.00;99.90;;;;;;5078461;28;20225;-63
2023/12/21 02:39:13;;;;;;;42.83;25.87;;;5.00;99.90;;;;;;5077978;28;20210;-63
2023/12/21 02:41:40;;;;;;;38.00;25.53;;;5.00;99.90;;;;;;5081072;28;20217;-63
2023/12/21 02:44:07;;;;;;;34.97;25.10;;;5.10;99.90;;;;;;5078782;28;20198;-63
2023/12/21 02:46:34;;;;;;;37.90;24.90;;;5.10;99.90;;;;;;5081136;28;20213;-62
2023/12/21 02:49:01;;;;;;;42.97;27.27;;;5.10;99.90;;;;;;5078505;28;20316;-62
2023/12/21 02:51:28;;;;;;;35.97;25.07;;;5.10;99.90;;;;;;5082374;28;20228;-62
2023/12/21 02:53:55;;;;;;;38.07;25.03;;;5.10;99.90;;;;;;5083469;28;20204;-62
2023/12/21 02:56:22;;;;;;;37.13;24.63;;;5.10;99.90;;;;;;5079681;28;20255;-62
2023/12/21 02:58:49;;;;;;;40.20;25.60;;;5.20;99.90;;;;;;5082662;28;20712;-63
2023/12/21 03:01:17;;;;;;;35.77;25.37;;;5.10;99.90;;;;;;5039016;28;1203315;-62
2023/12/21 03:03:44;;;;;;;35.73;24.97;;;5.10;99.90;;;;;;5081931;28;20211;-62
2023/12/21 03:06:11;;;;;;;38.27;24.33;;;5.10;99.90;;;;;;5077307;28;20205;-63
2023/12/21 03:08:39;;;;;;;35.33;23.27;;;5.10;99.90;;;;;;5085238;28;20216;-63
2023/12/21 03:11:06;;;;;;;30.67;22.60;;;5.10;99.90;;;;;;5080105;28;20221;-63
2023/12/21 03:13:33;;;;;;;36.27;24.20;;;5.10;99.90;;;;;;5086168;28;20618;-63
2023/12/21 03:16:05;;;;;;;34.20;22.97;;;5.10;99.90;;;;;;5081465;28;20206;-63
2023/12/21 03:18:33;;;;;;;32.53;23.30;;;5.10;99.90;;;;;;5083174;28;20572;-63
2023/12/21 03:21:00;;;;;;;32.03;22.43;;;5.10;99.90;;;;;;5084692;28;20280;-63
2023/12/21 03:23:27;;;;;;;35.17;22.27;;;5.10;99.90;;;;;;5084387;28;20205;-63
2023/12/21 03:25:54;;;;;;;32.90;21.47;;;5.10;99.90;;;;;;5085925;28;20211;-63
2023/12/21 03:28:21;;;;;;;31.93;21.83;;;5.10;99.90;;;;;;5081327;28;20217;-63
2023/12/21 03:30:48;;;;;;;33.27;21.43;;;5.20;99.90;;;;;;5081883;28;20193;-63
2023/12/21 03:33:15;;;;;;;30.23;20.57;;;5.20;99.90;;;;;;5081706;28;20225;-63
2023/12/21 03:35:43;;;;;;;33.00;21.40;;;5.20;99.90;;;;;;5080759;28;20197;-63
2023/12/21 03:38:10;;;;;;;33.23;22.27;;;5.20;99.90;;;;;;5088538;28;20212;-62
2023/12/21 03:40:37;;;;;;;31.17;21.50;;;5.20;99.90;;;;;;5090664;28;20248;-62
2023/12/21 03:43:04;;;;;;;30.00;21.83;;;5.20;99.90;;;;;;5078109;28;20280;-63
2023/12/21 03:45:32;;;;;;;27.80;21.43;;;5.20;99.90;;;;;;5081397;28;20279;-63
2023/12/21 03:47:59;;;;;;;29.33;20.47;;;5.30;99.90;;;;;;5081254;28;20200;-63
2023/12/21 03:50:26;;;;;;;33.67;21.77;;;5.30;99.90;;;;;;5077522;28;20264;-62
2023/12/21 03:52:53;;;;;;;28.53;20.07;;;5.30;99.90;;;;;;5081286;28;20211;-63
2023/12/21 03:55:20;;;;;;;28.57;18.20;;;5.30;99.90;;;;;;5079760;28;20199;-63
2023/12/21 03:57:47;;;;;;;27.73;18.87;;;5.30;99.90;;;;;;5084182;28;20196;-63
2023/12/21 04:00:18;;;;;;;29.97;18.60;;;5.30;99.90;;;;;;5085911;28;20559;-63
2023/12/21 04:02:46;;;;;;;28.50;19.30;;;5.30;99.90;;;;;;5081415;28;20233;-63
2023/12/21 04:05:13;;;;;;;31.83;20.00;;;5.30;99.90;;;;;;5083553;28;20206;-63
2023/12/21 04:07:40;;;;;;;23.87;18.10;;;5.30;99.90;;;;;;5086888;28;20235;-62
2023/12/21 04:10:08;;;;;;;25.73;18.50;;;5.30;99.90;;;;;;5082778;28;20209;-63
2023/12/21 04:12:35;;;;;;;33.10;18.80;;;5.30;99.90;;;;;;5082046;28;20202;-63
2023/12/21 04:15:02;;;;;;;30.90;19.20;;;5.30;99.90;;;;;;5083744;28;20222;-63
2023/12/21 04:17:29;;;;;;;30.17;19.10;;;5.30;99.90;;;;;;5084151;28;20627;-63
2023/12/21 04:19:56;;;;;;;25.27;17.87;;;5.30;99.90;;;;;;5079732;28;20216;-63
2023/12/21 04:22:24;;;;;;;23.23;17.60;;;5.30;99.90;;;;;;5083508;28;20648;-63
2023/12/21 04:24:51;;;;;;;33.83;19.37;;;5.30;99.90;;;;;;5083196;28;20200;-63
2023/12/21 04:27:18;;;;;;;30.13;19.60;;;5.30;99.90;;;;;;5082695;28;20209;-63
2023/12/21 04:29:45;;;;;;;28.13;19.33;;;5.30;99.90;;;;;;5076954;28;20639;-63
2023/12/21 04:32:12;;;;;;;26.23;18.93;;;5.30;99.90;;;;;;5078949;28;20200;-63
2023/12/21 04:34:39;;;;;;;25.97;19.97;;;5.30;99.90;;;;;;5079473;28;20334;-62
2023/12/21 04:37:06;;;;;;;27.63;19.20;;;5.30;99.90;;;;;;5086174;28;20211;-63
2023/12/21 04:39:33;;;;;;;28.13;18.57;;;5.30;99.90;;;;;;5079712;28;20651;-63
2023/12/21 04:42:00;;;;;;;27.97;18.60;;;5.30;99.90;;;;;;5081564;28;20206;-63
2023/12/21 04:44:28;;;;;;;26.70;19.80;;;5.30;99.80;;;;;;5077969;28;20194;-63
2023/12/21 04:46:55;;;;;;;29.03;18.20;;;5.30;99.80;;;;;;5081866;28;20259;-63
2023/12/21 04:49:24;;;;;;;29.37;18.97;;;5.30;99.80;;;;;;5082340;28;20303;-63
2023/12/21 04:51:51;;;;;;;25.27;18.93;;;5.30;99.80;;;;;;5079758;28;20197;-63
2023/12/21 04:54:18;;;;;;;26.40;17.57;;;5.30;99.70;;;;;;5081270;28;20574;-63
2023/12/21 04:56:46;;;;;;;30.43;19.37;;;5.30;99.70;;;;;;5077545;28;20190;-63
2023/12/21 04:59:13;;;;;;;29.87;18.47;;;5.30;99.70;;;;;;5089946;28;20226;-63
2023/12/21 05:01:40;;;;;;;26.40;18.07;;;5.30;99.70;;;;;;5079994;28;20332;-63
2023/12/21 05:04:09;;;;;;;25.73;18.50;;;5.30;99.70;;;;;;5078790;28;20201;-63
2023/12/21 05:06:36;;;;;;;26.80;18.17;;;5.30;99.70;;;;;;5078866;28;20301;-63
2023/12/21 05:09:03;;;;;;;30.90;18.93;;;5.20;99.70;;;;;;5081933;28;20210;-63
2023/12/21 05:11:30;;;;;;;31.87;19.77;;;5.30;99.80;;;;;;5083860;28;20212;-63
2023/12/21 05:13:58;;;;;;;27.30;18.27;;;5.30;99.80;;;;;;5084130;28;20211;-63
2023/12/21 05:16:25;;;;;;;27.53;19.13;;;5.30;99.80;;;;;;5080689;28;20189;-63
2023/12/21 05:18:52;;;;;;;34.80;18.73;;;5.30;99.80;;;;;;5082081;28;20197;-63
2023/12/21 05:21:19;;;;;;;26.27;18.23;;;5.30;99.80;;;;;;5081208;28;20267;-63
2023/12/21 05:23:46;;;;;;;29.10;18.80;;;5.30;99.80;;;;;;5080950;28;20317;-63
2023/12/21 05:26:15;;;;;;;26.80;18.30;;;5.30;99.70;;;;;;5079950;28;20237;-63
2023/12/21 05:28:42;;;;;;;26.03;18.03;;;5.30;99.70;;;;;;5079290;28;20247;-63
2023/12/21 05:31:11;;;;;;;32.17;19.50;;;5.30;99.70;;;;;;5077942;28;20205;-63
2023/12/21 05:33:38;;;;;;;28.53;18.13;;;5.30;99.70;;;;;;5079090;28;20230;-63
2023/12/21 05:36:07;;;;;;;26.67;18.47;;;5.30;99.70;;;;;;5080715;28;20210;-63
2023/12/21 05:38:36;;;;;;;23.97;17.47;;;5.20;99.70;;;;;;5087571;28;20210;-63
2023/12/21 05:41:04;;;;;;;22.53;17.07;;;5.20;99.70;;;;;;5078431;28;20290;-63
2023/12/21 05:43:31;;;;;;;25.80;17.70;;;5.20;99.70;;;;;;5075317;28;20205;-63
2023/12/21 05:45:58;;;;;;;25.63;18.17;;;5.10;99.70;;;;;;5076959;28;20194;-63
2023/12/21 05:48:25;;;;;;;23.40;17.47;;;5.10;99.70;;;;;;5083802;28;20217;-62
2023/12/21 05:50:53;;;;;;;28.60;19.43;;;5.10;99.60;;;;;;5083524;28;20205;-63
2023/12/21 05:53:20;;;;;;;22.73;15.83;;;5.00;99.60;;;;;;5076336;28;20205;-63
2023/12/21 05:55:46;;;;;;;25.07;17.10;;;5.00;99.60;;;;;;5080489;28;20211;-62
2023/12/21 05:58:14;;;;;;;23.70;16.67;;;4.90;99.50;;;;;;5082674;28;20201;-63
2023/12/21 06:00:41;;;;;;;28.10;18.00;;;4.90;99.50;;;;;;5078194;28;20629;-63
2023/12/21 06:03:08;;;;;;;25.57;17.10;;;4.80;99.50;;;;;;5088729;28;20224;-63
2023/12/21 06:05:35;;;;;;;25.67;18.13;;;4.80;99.50;;;;;;5082149;28;20200;-63
2023/12/21 06:08:02;;;;;;;23.57;17.67;;;4.70;99.50;;;;;;5095986;28;20212;-63
2023/12/21 06:10:30;;;;;;;25.90;17.30;;;4.70;99.60;;;;;;5081372;28;20308;-63
2023/12/21 06:12:57;;;;;;;23.07;17.37;;;4.60;99.60;;;;;;5083271;28;20211;-63
2023/12/21 06:15:24;;;;;;;29.30;17.20;;;4.60;99.60;;;;;;5081712;28;20302;-63
2023/12/21 06:17:51;;;;;;;24.30;18.00;;;4.60;99.50;;;;;;5079583;28;20197;-63
2023/12/21 06:20:18;;;;;;;24.30;18.50;;;4.50;99.60;;;;;;5084146;28;20209;-63
2023/12/21 06:22:45;;;;;;;26.27;18.70;;;4.50;99.70;;;;;;5080276;28;20632;-63
2023/12/21 06:25:13;;;;;;;27.00;18.27;;;4.50;99.70;;;;;;5082517;28;20213;-63
2023/12/21 06:27:40;;;;;;;26.30;18.13;;;4.60;99.80;;;;;;5080665;28;20205;-63
2023/12/21 06:30:07;;;;;;;29.40;18.37;;;4.50;99.80;;;;;;5083304;28;20225;-63
2023/12/21 06:32:34;;;;;;;26.63;18.47;;;4.60;99.90;;;;;;5082801;28;20631;-63
2023/12/21 06:35:02;;;;;;;27.63;18.23;;;4.60;99.90;;;;;;5079042;28;20244;-63
2023/12/21 06:37:29;;;;;;;22.33;17.77;;;4.70;99.90;;;;;;5078948;28;20190;-62
2023/12/21 06:39:57;;;;;;;28.23;18.57;;;4.70;99.90;;;;;;5082172;28;20207;-63
2023/12/21 06:42:24;;;;;;;27.87;19.03;;;4.70;99.90;;;;;;5077660;28;20202;-63
2023/12/21 06:44:51;;;;;;;25.67;17.33;;;4.70;99.90;;;;;;5078616;28;20213;-62
2023/12/21 06:47:18;;;;;;;24.10;17.17;;;4.70;99.80;;;;;;5081695;28;20224;-62
2023/12/21 06:49:45;;;;;;;24.60;16.53;;;4.70;99.80;;;;;;5078739;28;20212;-62
2023/12/21 06:52:12;;;;;;;21.70;15.40;;;4.70;99.80;;;;;;5080914;28;20292;-63
2023/12/21 06:54:40;;;;;;;25.27;17.03;;;4.70;99.80;;;;;;5080873;28;20194;-63
2023/12/21 06:57:07;;;;;;;25.77;16.90;;;4.80;99.90;;;;;;5081586;28;20200;-63
2023/12/21 06:59:34;;;;;;;22.40;16.30;;;4.80;99.80;;;;;;5079912;28;20201;-62
2023/12/21 07:02:03;;;;;;;25.00;15.77;;;4.80;99.80;;;;;;5079022;28;20306;-63
2023/12/21 07:04:38;;;;;;;23.70;16.00;;;4.80;99.80;;;;;;5086823;28;20518;-63
2023/12/21 07:07:08;;;;;;;28.70;16.40;;;4.80;99.70;;;;;;5081121;28;20214;-62
2023/12/21 07:09:35;;;;;;;24.87;17.27;;;4.80;99.70;;;;;;5084032;28;20319;-63
2023/12/21 07:12:05;;;;;;;22.70;16.13;;;4.80;99.70;;;;;;5087070;28;20209;-63
2023/12/21 07:14:32;;;;;;;22.63;15.40;;;4.70;99.60;;;;;;5085773;28;20206;-62
2023/12/21 07:16:59;;;;;;;24.70;15.83;;;4.70;99.60;;;;;;5081503;28;20194;-63
2023/12/21 07:19:26;;;;;;;24.70;16.53;;;4.70;99.60;;;;;;5082452;28;20189;-63
2023/12/21 07:21:53;;;;;;;23.23;16.40;;;4.70;99.50;;;;;;5081455;28;20207;-63
2023/12/21 07:24:20;;;;;;;25.77;16.80;;;4.70;99.60;;;;;;5080617;28;20231;-63
2023/12/21 07:26:47;;;;;;;25.73;16.10;;;4.60;99.50;;;;;;5081556;28;20196;-62
2023/12/21 07:29:14;;;;;;;24.73;15.13;;;4.60;99.50;;;;;;5083587;28;20214;-63
2023/12/21 07:31:41;;;;;;;23.30;15.83;;;4.60;99.40;;;;;;5080067;28;20193;-63
2023/12/21 07:34:09;;;;;;;23.10;15.53;;;4.60;99.40;;;;;;5083220;28;20263;-63
2023/12/21 07:36:36;;;;;;;20.83;15.30;;;4.60;99.40;;;;;;5079495;28;20639;-63
2023/12/21 07:39:04;;;;;;;22.10;15.63;;;4.60;99.60;;;;;;5084054;28;20209;-63
2023/12/21 07:41:31;;;;;;;23.47;16.23;;;4.60;99.40;;;;;;5084438;28;20211;-63
2023/12/21 07:43:59;;;;;;;22.73;15.73;;;4.60;99.40;;;;;;5082332;28;20506;-63
2023/12/21 07:46:26;;;;;;;26.20;15.50;;;4.70;99.50;;;;;;5081738;28;20198;-63
2023/12/21 07:48:53;;;;;;;20.53;15.57;;;4.70;99.40;;;;;;5081127;28;20196;-63
2023/12/21 07:51:20;;;;;;;23.50;15.93;;;4.70;99.50;;;;;;5085285;28;20796;-63
2023/12/21 07:53:47;;;;;;;24.83;17.40;;;4.70;99.50;;;;;;5089595;28;20219;-62
2023/12/21 07:56:14;;;;;;;24.93;16.20;;;4.80;99.50;;;;;;5078479;28;20197;-63
2023/12/21 07:58:42;;;;;;;24.60;16.77;;;4.90;99.40;;;;;;5079451;28;20201;-63
2023/12/21 08:01:09;;;;;;;20.87;16.70;;;4.90;99.40;;;;;;5083417;28;20650;-63
2023/12/21 08:03:36;;;;;;;26.97;17.73;;;5.00;99.40;;;;;;5083838;28;20209;-63
2023/12/21 08:06:04;;;;;;;23.80;17.80;;;5.00;99.40;;;;;;5080729;28;20216;-63
2023/12/21 08:08:31;;;;;;;28.43;18.00;;;5.10;99.40;;;;;;5084081;28;20620;-63
2023/12/21 08:11:01;;;;;;;27.07;19.43;;;5.20;99.40;;;;;;5082421;28;20212;-63
2023/12/21 08:13:28;;;;;;;28.57;19.03;;;5.20;99.40;;;;;;5084069;28;20197;-62
2023/12/21 08:15:55;;;;;;;27.80;19.07;;;5.30;99.40;;;;;;5082001;28;20198;-63
2023/12/21 08:18:22;;;;;;;26.97;20.10;;;5.40;99.30;;;;;;5081863;28;20281;-63
2023/12/21 08:20:50;;;;;;;27.63;19.40;;;5.50;99.30;;;;;;5082206;28;20194;-63
2023/12/21 08:23:17;;;;;;;30.27;20.83;;;5.50;99.20;;;;;;5086586;28;20201;-63
2023/12/21 08:25:44;;;;;;;29.40;20.70;;;5.50;99.20;;;;;;5083229;28;20197;-63
2023/12/21 08:28:11;;;;;;;30.60;20.73;;;5.60;99.20;;;;;;5084708;28;20675;-63
2023/12/21 08:30:41;;;;;;;31.67;20.10;;;5.70;99.20;;;;;;5084451;28;20219;-63
2023/12/21 08:33:08;;;;;;;29.27;20.40;;;5.80;99.20;;;;;;5083133;28;20824;-63
2023/12/21 08:35:36;;;;;;;28.53;20.57;;;5.80;99.10;;;;;;5080853;28;20269;-63
2023/12/21 08:38:03;;;;;;;31.37;21.47;;;5.90;99.10;;;;;;5078640;28;20200;-63
2023/12/21 08:40:31;;;;;;;32.50;21.93;;;5.90;99.10;;;;;;5080328;28;20614;-63
2023/12/21 08:42:58;;;;;;;31.37;21.77;;;6.00;99.00;;;;;;5078666;28;20217;-63
2023/12/21 08:45:25;;;;;;;26.73;20.67;;;6.10;98.90;;;;;;5081545;28;20288;-63
2023/12/21 08:47:54;;;;;;;29.00;21.23;;;6.10;98.90;;;;;;5079344;28;20533;-63
2023/12/21 08:50:21;;;;;;;38.63;23.23;;;6.20;98.80;;;;;;5088026;28;20558;-63
2023/12/21 08:52:49;;;;;;;33.93;22.17;;;6.30;98.80;;;;;;5086054;28;20212;-63
2023/12/21 08:55:16;;;;;;;45.00;23.87;;;6.30;98.80;;;;;;5080490;28;20194;-62
2023/12/21 08:57:43;;;;;;;34.70;22.37;;;6.40;98.80;;;;;;5088749;28;20198;-63
2023/12/21 09:00:14;;;;;;;28.07;22.13;;;6.40;98.80;;;;;;5076571;28;20304;-63
2023/12/21 09:02:41;;;;;;;34.27;21.93;;;6.50;98.80;;;;;;5079165;28;20229;-62
2023/12/21 09:05:12;;;;;;;28.30;21.43;;;6.60;98.80;;;;;;5079179;28;20236;-64
2023/12/21 09:07:39;;;;;;;31.40;22.43;;;6.60;98.70;;;;;;5082820;28;20598;-63
2023/12/21 09:10:07;;;;;;;32.03;22.07;;;6.70;98.70;;;;;;5075764;28;20232;-62
2023/12/21 09:12:35;;;;;;;33.40;20.73;;;6.70;98.70;;;;;;5080370;28;20218;-62
2023/12/21 09:15:04;;;;;;;27.00;21.77;;;6.70;98.70;;;;;;5083140;28;20220;-62
2023/12/21 09:17:31;;;;;;;28.80;22.10;;;6.80;98.70;;;;;;5080828;28;20217;-62
2023/12/21 09:19:58;;;;;;;29.17;21.60;;;6.80;98.60;;;;;;5083509;28;20201;-63
2023/12/21 09:22:25;;;;;;;30.33;20.53;;;6.90;98.60;;;;;;5083855;28;20525;-63
2023/12/21 09:24:53;;;;;;;26.23;20.00;;;7.00;98.60;;;;;;5081502;28;20202;-63
2023/12/21 09:27:21;;;;;;;25.93;19.60;;;7.10;98.60;;;;;;5079115;28;20263;-63
2023/12/21 09:29:48;;;;;;;24.97;20.03;;;7.20;98.50;;;;;;5082601;28;20286;-63
2023/12/21 09:32:15;;;;;;;26.60;19.63;;;7.30;98.40;;;;;;5079240;28;20252;-63
2023/12/21 09:34:45;;;;;;;26.13;19.63;;;7.30;98.40;;;;;;5083402;28;20277;-63
2023/12/21 09:37:13;;;;;;;29.90;19.50;;;7.50;98.30;;;;;;5079634;28;20240;-63
2023/12/21 09:39:40;;;;;;;29.17;20.97;;;7.50;98.20;;;;;;5079660;28;20193;-63
2023/12/21 09:42:13;;;;;;;27.77;19.77;;;7.60;98.10;;;;;;5079852;28;20597;-63
2023/12/21 09:44:45;;;;;;;25.10;20.53;;;7.70;98.10;;;;;;5077924;28;20201;-63
2023/12/21 09:47:16;;;;;;;27.50;20.27;;;7.70;98.00;;;;;;5084160;28;20186;-63
2023/12/21 09:49:45;;;;;;;31.60;21.33;;;7.80;97.90;;;;;;5078611;28;20221;-63
2023/12/21 09:52:12;;;;;;;28.60;21.53;;;7.80;97.80;;;;;;5079611;28;20560;-63
2023/12/21 09:54:41;;;;;;;27.50;22.13;;;7.90;97.80;;;;;;5079079;28;20589;-63
2023/12/21 09:57:09;;;;;;;28.97;20.37;;;8.00;97.80;;;;;;5080715;28;20220;-63
2023/12/21 09:59:37;;;;;;;29.57;21.50;;;8.10;97.70;;;;;;5080049;28;20193;-63
2023/12/21 10:02:11;;;;;;;28.30;22.53;;;8.20;97.70;;;;;;5080738;28;20250;-63
2023/12/21 10:04:44;;;;;;;29.97;22.20;;;8.30;97.60;;;;;;5083839;28;20193;-63
2023/12/21 10:07:12;;;;;;;36.33;24.47;;;8.50;97.50;;;;;;5081424;28;20281;-64
2023/12/21 10:09:40;;;;;;;30.70;22.00;;;8.60;97.40;;;;;;5082166;28;20198;-62
2023/12/21 10:12:07;;;;;;;33.77;23.97;;;8.60;97.20;;;;;;5079413;28;20200;-64
2023/12/21 10:14:34;;;;;;;31.53;23.70;;;8.70;97.00;;;;;;5086445;28;20197;-63
2023/12/21 10:17:02;;;;;;;29.33;24.30;;;8.80;97.00;;;;;;5081728;28;20201;-62
2023/12/21 10:19:29;;;;;;;31.03;23.03;;;8.80;96.90;;;;;;5084427;28;20205;-63
2023/12/21 10:21:57;;;;;;;29.37;22.67;;;8.90;96.90;;;;;;5077565;28;20303;-63
2023/12/21 10:24:26;;;;;;;30.60;23.47;;;9.00;96.90;;;;;;5077535;28;20696;-63
2023/12/21 10:26:53;;;;;;;30.60;22.03;;;9.20;96.90;;;;;;5081381;28;20582;-63
2023/12/21 10:29:20;;;;;;;29.47;22.67;;;9.30;96.80;;;;;;5078418;28;20206;-64
2023/12/21 10:31:48;;;;;;;30.43;22.73;;;9.30;96.40;;;;;;5088034;28;20567;-64
2023/12/21 10:34:15;;;;;;;33.83;25.70;;;9.40;96.00;;;;;;5085069;28;20191;-64
2023/12/21 10:36:44;;;;;;;30.43;23.47;;;9.40;96.00;;;;;;5084422;28;20194;-63
2023/12/21 10:39:14;;;;;;;31.53;22.53;;;9.50;95.90;;;;;;5086088;28;20230;-63
2023/12/21 10:41:44;;;;;;;33.43;24.50;;;9.40;95.50;;;;;;5086407;28;20524;-63
2023/12/21 10:44:13;;;;;;;31.57;23.20;;;9.40;95.50;;;;;;5083679;28;20562;-65
2023/12/21 10:46:41;;;;;;;33.90;23.60;;;9.40;95.60;;;;;;5085206;28;20525;-62
2023/12/21 10:49:12;;;;;;;31.57;23.07;;;9.40;95.70;;;;;;5081821;28;20260;-64
2023/12/21 10:51:43;;;;;;;34.00;25.13;;;9.40;95.80;;;;;;5068431;28;20215;-63
2023/12/21 10:54:12;;;;;;;27.77;22.93;;;9.50;95.80;;;;;;5082444;28;20203;-64
2023/12/21 10:56:44;;;;;;;30.40;23.43;;;9.60;95.80;;;;;;5084554;28;20211;-63
2023/12/21 10:59:16;;;;;;;30.73;23.57;;;9.60;95.80;;;;;;5083959;28;20213;-64
2023/12/21 11:01:43;;;;;;;29.77;23.70;;;9.70;95.50;;;;;;5089822;28;20261;-63
2023/12/21 11:04:12;;;;;;;27.73;22.77;;;9.80;95.30;;;;;;5080115;28;20205;-64
2023/12/21 11:06:43;;;;;;;28.97;22.80;;;9.90;95.30;;;;;;5087252;28;20196;-64
2023/12/21 11:09:12;;;;;;;36.20;25.00;;;9.90;95.00;;;;;;5088480;28;20229;-64
2023/12/21 11:11:40;;;;;;;30.93;23.93;;;10.00;94.90;;;;;;5087498;28;20216;-63
2023/12/21 11:14:07;;;;;;;27.90;23.33;;;10.00;95.00;;;;;;5083731;28;20227;-63
2023/12/21 11:16:49;;;;;;;29.33;23.37;;;10.10;95.00;;;;;;5082587;28;20569;-63
2023/12/21 11:19:26;;;;;;;33.20;22.97;;;10.20;95.00;;;;;;5084847;28;20878;-63
2023/12/21 11:21:55;;;;;;;27.63;21.70;;;10.30;95.00;;;;;;5087561;28;20203;-63
2023/12/21 11:24:23;;;;;;;32.00;23.10;;;10.30;94.80;;;;;;5083524;28;20252;-63
2023/12/21 11:26:51;;;;;;;28.10;22.40;;;10.30;94.50;;;;;;5083874;28;20650;-63
2023/12/21 11:29:27;;;;;;;29.33;24.50;;;10.30;94.50;;;;;;5078723;28;20240;-64
2023/12/21 11:31:56;;;;;;;31.37;24.43;;;10.20;94.30;;;;;;5087560;28;20235;-64
2023/12/21 11:34:45;;;;;;;29.77;23.17;;;10.20;94.40;;;;;;5084104;28;20599;-63
2023/12/21 11:37:17;;;;;;;31.70;24.07;;;10.20;94.50;;;;;;5088192;28;20200;-63
2023/12/21 11:39:47;;;;;;;29.47;23.07;;;10.20;94.60;;;;;;5084224;28;20198;-64
2023/12/21 11:42:14;;;;;;;30.53;24.23;;;10.30;94.70;;;;;;5082980;28;20299;-64
2023/12/21 11:44:49;;;;;;;32.97;25.10;;;10.30;94.90;;;;;;5078820;28;20263;-64
2023/12/21 11:47:17;;;;;;;30.57;24.07;;;10.30;94.90;;;;;;5082249;28;20222;-64
2023/12/21 11:49:45;;;;;;;30.37;24.40;;;10.40;94.90;;;;;;5088495;28;20205;-64
2023/12/21 11:52:23;;;;;;;32.03;24.60;;;10.40;95.00;;;;;;5078773;28;20248;-64
2023/12/21 11:54:50;;;;;;;31.27;24.37;;;10.40;94.90;;;;;;5083203;28;20209;-64
2023/12/21 11:57:17;;;;;;;28.60;23.30;;;10.30;94.90;;;;;;5080499;28;20195;-64
2023/12/21 11:59:44;;;;;;;30.03;23.27;;;10.30;94.90;;;;;;5077638;28;20202;-64
2023/12/21 12:02:13;;;;;;;35.13;24.40;;;10.30;95.00;;;;;;5084921;28;20246;-64
2023/12/21 12:04:48;;;;;;;31.80;24.90;;;10.30;95.00;;;;;;5082921;28;20318;-64
2023/12/21 12:07:18;;;;;;;34.83;26.40;;;10.20;95.00;;;;;;5083067;28;20640;-64
2023/12/21 12:09:46;;;;;;;32.93;25.33;;;10.20;95.10;;;;;;5084732;28;20236;-64
2023/12/21 12:12:13;;;;;;;34.63;26.00;;;10.20;95.10;;;;;;5085690;28;20206;-64
2023/12/21 12:14:40;;;;;;;33.83;26.20;;;10.10;95.20;;;;;;5079500;28;20538;-64
2023/12/21 12:17:08;;;;;;;34.37;26.40;;;10.10;95.20;;;;;;5082907;28;20214;-64
2023/12/21 12:19:38;;;;;;;39.30;29.10;;;10.10;95.30;;;;;;5085508;28;20205;-63
2023/12/21 12:22:05;;;;;;;37.67;28.50;;;10.10;95.30;;;;;;5088359;28;20206;-63
2023/12/21 12:24:32;;;;;;;36.80;29.17;;;10.10;95.70;;;;;;5088111;28;20627;-63
2023/12/21 12:26:59;;;;;;;37.50;29.50;;;10.10;95.40;;;;;;5085692;28;20214;-64
2023/12/21 12:29:30;;;;;;;35.90;28.93;;;10.10;95.50;;;;;;5083664;28;20636;-64
2023/12/21 12:31:57;;;;;;;36.57;28.67;;;10.20;95.50;;;;;;5081799;28;20309;-64
2023/12/21 12:34:25;;;;;;;41.13;30.43;;;10.20;95.50;;;;;;5081914;28;20210;-64
2023/12/21 12:36:54;;;;;;;42.47;29.23;;;10.20;95.50;;;;;;5083230;28;20482;-64
2023/12/21 12:39:24;;;;;;;41.37;29.57;;;10.30;95.50;;;;;;5081125;28;20638;-64